sensor_id;sensor_type;location;lat;lon;timestamp;temperature;humidity
65231;DHT22;51813;40.666;16.602;2023-03-04T00:01:53;16.80;56.80
65231;DHT22;51813;40.666;16.602;2023-03-04T00:04:18;16.70;56.80
65231;DHT22;51813;40.666;16.602;2023-03-04T00:06:44;16.70;57.10
65231;DHT22;51813;40.666;16.602;2023-03-04T00:09:10;16.70;56.60
65231;DHT22;51813;40.666;16.602;2023-03-04T00:11:35;16.60;57.00
65231;DHT22;51813;40.666;16.602;2023-03-04T00:14:01;16.70;57.20
65231;DHT22;51813;40.666;16.602;2023-03-04T00:16:27;16.60;56.90
65231;DHT22;51813;40.666;16.602;2023-03-04T00:18:56;16.60;56.80
65231;DHT22;51813;40.666;16.602;2023-03-04T00:21:22;16.70;56.80
65231;DHT22;51813;40.666;16.602;2023-03-04T00:23:48;16.70;57.00
65231;DHT22;51813;40.666;16.602;2023-03-04T00:26:14;16.70;57.00
65231;DHT22;51813;40.666;16.602;2023-03-04T00:28:40;16.70;56.70
65231;DHT22;51813;40.666;16.602;2023-03-04T00:31:07;16.60;56.80
65231;DHT22;51813;40.666;16.602;2023-03-04T00:33:32;16.60;57.00
65231;DHT22;51813;40.666;16.602;2023-03-04T00:35:58;16.60;57.10
65231;DHT22;51813;40.666;16.602;2023-03-04T00:38:26;16.60;56.40
65231;DHT22;51813;40.666;16.602;2023-03-04T00:40:52;16.30;57.20
65231;DHT22;51813;40.666;16.602;2023-03-04T00:43:18;16.40;57.90
65231;DHT22;51813;40.666;16.602;2023-03-04T00:45:44;16.50;57.30
65231;DHT22;51813;40.666;16.602;2023-03-04T00:48:10;16.50;57.00
65231;DHT22;51813;40.666;16.602;2023-03-04T00:50:36;16.30;57.10
65231;DHT22;51813;40.666;16.602;2023-03-04T00:53:02;16.30;57.60
65231;DHT22;51813;40.666;16.602;2023-03-04T00:55:27;16.20;57.50
65231;DHT22;51813;40.666;16.602;2023-03-04T00:57:53;16.20;57.30
65231;DHT22;51813;40.666;16.602;2023-03-04T01:00:19;16.20;57.70
65231;DHT22;51813;40.666;16.602;2023-03-04T01:02:45;16.10;58.00
65231;DHT22;51813;40.666;16.602;2023-03-04T01:05:11;16.20;57.60
65231;DHT22;51813;40.666;16.602;2023-03-04T01:07:36;16.30;57.40
65231;DHT22;51813;40.666;16.602;2023-03-04T01:10:03;16.20;57.80
65231;DHT22;51813;40.666;16.602;2023-03-04T01:12:29;16.30;57.30
65231;DHT22;51813;40.666;16.602;2023-03-04T01:14:55;16.10;57.90
65231;DHT22;51813;40.666;16.602;2023-03-04T01:17:21;16.30;57.70
65231;DHT22;51813;40.666;16.602;2023-03-04T01:19:46;16.40;57.50
65231;DHT22;51813;40.666;16.602;2023-03-04T01:22:12;16.50;57.20
65231;DHT22;51813;40.666;16.602;2023-03-04T01:24:39;16.30;57.50
65231;DHT22;51813;40.666;16.602;2023-03-04T01:27:05;16.40;57.30
65231;DHT22;51813;40.666;16.602;2023-03-04T01:29:31;16.30;57.30
65231;DHT22;51813;40.666;16.602;2023-03-04T01:31:56;16.40;57.40
65231;DHT22;51813;40.666;16.602;2023-03-04T01:34:22;16.20;57.40
65231;DHT22;51813;40.666;16.602;2023-03-04T01:36:48;16.30;57.60
65231;DHT22;51813;40.666;16.602;2023-03-04T01:39:13;16.30;57.40
65231;DHT22;51813;40.666;16.602;2023-03-04T01:41:39;16.30;57.40
65231;DHT22;51813;40.666;16.602;2023-03-04T01:44:05;16.30;57.40
65231;DHT22;51813;40.666;16.602;2023-03-04T01:46:33;16.40;57.20
65231;DHT22;51813;40.666;16.602;2023-03-04T01:48:59;16.40;57.40
65231;DHT22;51813;40.666;16.602;2023-03-04T01:51:25;16.30;57.30
65231;DHT22;51813;40.666;16.602;2023-03-04T01:53:51;16.30;57.60
65231;DHT22;51813;40.666;16.602;2023-03-04T01:56:33;16.40;57.50
65231;DHT22;51813;40.666;16.602;2023-03-04T01:59:13;16.50;57.20
65231;DHT22;51813;40.666;16.602;2023-03-04T02:01:42;16.40;57.20
65231;DHT22;51813;40.666;16.602;2023-03-04T02:04:08;16.50;57.30
65231;DHT22;51813;40.666;16.602;2023-03-04T02:06:36;16.40;57.50
65231;DHT22;51813;40.666;16.602;2023-03-04T02:09:03;16.50;57.30
65231;DHT22;51813;40.666;16.602;2023-03-04T02:11:29;16.50;57.30
65231;DHT22;51813;40.666;16.602;2023-03-04T02:13:55;16.50;57.30
65231;DHT22;51813;40.666;16.602;2023-03-04T02:16:21;16.50;57.50
65231;DHT22;51813;40.666;16.602;2023-03-04T02:18:46;16.50;57.20
65231;DHT22;51813;40.666;16.602;2023-03-04T02:28:47;16.40;57.30
65231;DHT22;51813;40.666;16.602;2023-03-04T02:33:45;16.50;57.30
65231;DHT22;51813;40.666;16.602;2023-03-04T02:36:10;16.40;57.20
65231;DHT22;51813;40.666;16.602;2023-03-04T02:38:36;16.40;57.30
65231;DHT22;51813;40.666;16.602;2023-03-04T02:41:02;16.30;57.50
65231;DHT22;51813;40.666;16.602;2023-03-04T02:43:29;16.20;56.90
65231;DHT22;51813;40.666;16.602;2023-03-04T02:45:55;16.30;57.40
65231;DHT22;51813;40.666;16.602;2023-03-04T02:48:21;16.20;57.30
65231;DHT22;51813;40.666;16.602;2023-03-04T02:50:50;16.20;57.00
65231;DHT22;51813;40.666;16.602;2023-03-04T02:53:16;16.30;57.50
65231;DHT22;51813;40.666;16.602;2023-03-04T02:55:42;16.20;57.20
65231;DHT22;51813;40.666;16.602;2023-03-04T02:58:08;16.20;57.40
65231;DHT22;51813;40.666;16.602;2023-03-04T03:00:35;16.10;57.20
65231;DHT22;51813;40.666;16.602;2023-03-04T03:03:01;16.10;57.00
65231;DHT22;51813;40.666;16.602;2023-03-04T03:05:31;16.10;57.50
65231;DHT22;51813;40.666;16.602;2023-03-04T03:07:57;16.20;57.30
65231;DHT22;51813;40.666;16.602;2023-03-04T03:10:24;16.20;57.00
65231;DHT22;51813;40.666;16.602;2023-03-04T03:12:50;16.10;57.50
65231;DHT22;51813;40.666;16.602;2023-03-04T03:15:16;16.10;57.00
65231;DHT22;51813;40.666;16.602;2023-03-04T03:17:42;16.10;57.10
65231;DHT22;51813;40.666;16.602;2023-03-04T03:20:10;16.10;57.10
65231;DHT22;51813;40.666;16.602;2023-03-04T03:22:36;16.20;57.20
65231;DHT22;51813;40.666;16.602;2023-03-04T03:25:02;16.20;56.80
65231;DHT22;51813;40.666;16.602;2023-03-04T03:27:28;16.20;56.90
65231;DHT22;51813;40.666;16.602;2023-03-04T03:29:54;16.30;56.80
65231;DHT22;51813;40.666;16.602;2023-03-04T03:32:19;16.30;57.00
65231;DHT22;51813;40.666;16.602;2023-03-04T03:34:45;16.10;56.80
65231;DHT22;51813;40.666;16.602;2023-03-04T03:37:11;16.10;57.20
65231;DHT22;51813;40.666;16.602;2023-03-04T03:39:36;16.10;57.00
65231;DHT22;51813;40.666;16.602;2023-03-04T03:42:02;16.00;57.20
65231;DHT22;51813;40.666;16.602;2023-03-04T03:44:28;16.10;57.00
65231;DHT22;51813;40.666;16.602;2023-03-04T03:46:54;16.20;56.90
65231;DHT22;51813;40.666;16.602;2023-03-04T03:49:19;16.20;56.80
65231;DHT22;51813;40.666;16.602;2023-03-04T03:51:46;16.10;56.80
65231;DHT22;51813;40.666;16.602;2023-03-04T03:54:11;16.20;56.80
65231;DHT22;51813;40.666;16.602;2023-03-04T03:56:37;16.20;56.90
65231;DHT22;51813;40.666;16.602;2023-03-04T03:59:03;16.30;56.70
65231;DHT22;51813;40.666;16.602;2023-03-04T04:01:28;16.30;56.80
65231;DHT22;51813;40.666;16.602;2023-03-04T04:03:54;16.30;56.70
65231;DHT22;51813;40.666;16.602;2023-03-04T04:06:20;16.30;56.70
65231;DHT22;51813;40.666;16.602;2023-03-04T04:08:45;16.40;56.80
65231;DHT22;51813;40.666;16.602;2023-03-04T04:11:12;16.40;56.60
65231;DHT22;51813;40.666;16.602;2023-03-04T04:13:38;16.40;56.70
65231;DHT22;51813;40.666;16.602;2023-03-04T04:16:04;16.40;56.40
65231;DHT22;51813;40.666;16.602;2023-03-04T04:18:30;16.40;56.80
65231;DHT22;51813;40.666;16.602;2023-03-04T04:20:56;16.30;56.90
65231;DHT22;51813;40.666;16.602;2023-03-04T04:23:22;16.40;57.00
65231;DHT22;51813;40.666;16.602;2023-03-04T04:25:47;16.40;56.70
65231;DHT22;51813;40.666;16.602;2023-03-04T04:28:13;16.40;56.90
65231;DHT22;51813;40.666;16.602;2023-03-04T04:30:39;16.40;56.80
65231;DHT22;51813;40.666;16.602;2023-03-04T04:33:05;16.40;56.70
65231;DHT22;51813;40.666;16.602;2023-03-04T04:35:34;16.40;56.60
65231;DHT22;51813;40.666;16.602;2023-03-04T04:38:00;16.40;56.90
65231;DHT22;51813;40.666;16.602;2023-03-04T04:40:26;16.40;56.80
65231;DHT22;51813;40.666;16.602;2023-03-04T04:42:52;16.40;57.00
65231;DHT22;51813;40.666;16.602;2023-03-04T04:45:18;16.50;56.90
65231;DHT22;51813;40.666;16.602;2023-03-04T04:47:43;16.40;56.80
65231;DHT22;51813;40.666;16.602;2023-03-04T04:50:09;16.40;57.00
65231;DHT22;51813;40.666;16.602;2023-03-04T04:52:35;16.40;56.90
65231;DHT22;51813;40.666;16.602;2023-03-04T04:55:02;16.50;57.00
65231;DHT22;51813;40.666;16.602;2023-03-04T04:57:27;16.50;57.00
65231;DHT22;51813;40.666;16.602;2023-03-04T04:59:53;16.40;57.10
65231;DHT22;51813;40.666;16.602;2023-03-04T05:02:19;16.40;57.00
65231;DHT22;51813;40.666;16.602;2023-03-04T05:04:45;16.40;57.00
65231;DHT22;51813;40.666;16.602;2023-03-04T05:07:10;16.40;57.10
65231;DHT22;51813;40.666;16.602;2023-03-04T05:09:36;16.40;57.20
65231;DHT22;51813;40.666;16.602;2023-03-04T05:12:02;16.40;57.30
65231;DHT22;51813;40.666;16.602;2023-03-04T05:14:28;16.40;57.20
65231;DHT22;51813;40.666;16.602;2023-03-04T05:16:53;16.40;57.20
65231;DHT22;51813;40.666;16.602;2023-03-04T05:19:20;16.40;57.10
65231;DHT22;51813;40.666;16.602;2023-03-04T05:21:45;16.40;57.20
65231;DHT22;51813;40.666;16.602;2023-03-04T05:24:11;16.40;57.80
65231;DHT22;51813;40.666;16.602;2023-03-04T05:26:37;16.40;57.20
65231;DHT22;51813;40.666;16.602;2023-03-04T05:29:03;16.40;57.10
65231;DHT22;51813;40.666;16.602;2023-03-04T05:31:29;16.40;57.10
65231;DHT22;51813;40.666;16.602;2023-03-04T05:33:55;16.40;57.10
65231;DHT22;51813;40.666;16.602;2023-03-04T05:36:20;16.40;57.20
65231;DHT22;51813;40.666;16.602;2023-03-04T05:38:46;16.40;57.10
65231;DHT22;51813;40.666;16.602;2023-03-04T05:41:12;16.40;57.20
65231;DHT22;51813;40.666;16.602;2023-03-04T05:43:37;16.40;57.20
65231;DHT22;51813;40.666;16.602;2023-03-04T05:46:08;16.40;57.30
65231;DHT22;51813;40.666;16.602;2023-03-04T05:48:33;16.40;57.40
65231;DHT22;51813;40.666;16.602;2023-03-04T05:51:00;16.40;57.20
65231;DHT22;51813;40.666;16.602;2023-03-04T05:53:26;16.40;57.30
65231;DHT22;51813;40.666;16.602;2023-03-04T05:55:53;16.40;57.10
65231;DHT22;51813;40.666;16.602;2023-03-04T05:58:18;16.40;57.30
65231;DHT22;51813;40.666;16.602;2023-03-04T06:00:45;16.40;57.20
65231;DHT22;51813;40.666;16.602;2023-03-04T06:03:19;16.40;57.00
65231;DHT22;51813;40.666;16.602;2023-03-04T06:05:44;16.40;57.10
65231;DHT22;51813;40.666;16.602;2023-03-04T06:08:11;16.40;57.20
65231;DHT22;51813;40.666;16.602;2023-03-04T06:10:38;16.40;57.10
65231;DHT22;51813;40.666;16.602;2023-03-04T06:13:04;16.40;57.20
65231;DHT22;51813;40.666;16.602;2023-03-04T06:15:30;16.40;57.20
65231;DHT22;51813;40.666;16.602;2023-03-04T06:17:56;16.40;57.00
65231;DHT22;51813;40.666;16.602;2023-03-04T06:20:22;16.40;57.10
65231;DHT22;51813;40.666;16.602;2023-03-04T06:22:48;16.40;57.20
65231;DHT22;51813;40.666;16.602;2023-03-04T06:25:14;16.40;57.10
65231;DHT22;51813;40.666;16.602;2023-03-04T06:27:40;16.40;57.00
65231;DHT22;51813;40.666;16.602;2023-03-04T06:30:06;16.40;57.00
65231;DHT22;51813;40.666;16.602;2023-03-04T06:32:32;16.40;57.10
65231;DHT22;51813;40.666;16.602;2023-03-04T06:34:57;16.40;57.10
65231;DHT22;51813;40.666;16.602;2023-03-04T06:37:23;16.40;57.00
65231;DHT22;51813;40.666;16.602;2023-03-04T06:39:49;16.40;57.00
65231;DHT22;51813;40.666;16.602;2023-03-04T06:42:14;16.40;56.90
65231;DHT22;51813;40.666;16.602;2023-03-04T06:44:40;16.40;56.90
65231;DHT22;51813;40.666;16.602;2023-03-04T06:47:06;16.40;57.00
65231;DHT22;51813;40.666;16.602;2023-03-04T06:49:32;16.40;57.00
65231;DHT22;51813;40.666;16.602;2023-03-04T06:51:58;16.40;56.80
65231;DHT22;51813;40.666;16.602;2023-03-04T06:54:23;16.40;56.90
65231;DHT22;51813;40.666;16.602;2023-03-04T06:56:49;16.40;56.80
65231;DHT22;51813;40.666;16.602;2023-03-04T06:59:15;16.40;57.00
65231;DHT22;51813;40.666;16.602;2023-03-04T07:01:40;16.40;56.90
65231;DHT22;51813;40.666;16.602;2023-03-04T07:04:06;16.40;56.90
65231;DHT22;51813;40.666;16.602;2023-03-04T07:06:32;16.40;56.80
65231;DHT22;51813;40.666;16.602;2023-03-04T07:08:58;16.40;57.00
65231;DHT22;51813;40.666;16.602;2023-03-04T07:11:24;16.40;56.90
65231;DHT22;51813;40.666;16.602;2023-03-04T07:13:50;16.30;57.10
65231;DHT22;51813;40.666;16.602;2023-03-04T07:16:19;16.30;56.80
65231;DHT22;51813;40.666;16.602;2023-03-04T07:18:45;16.40;57.10
65231;DHT22;51813;40.666;16.602;2023-03-04T07:21:12;16.30;57.20
65231;DHT22;51813;40.666;16.602;2023-03-04T07:23:38;16.30;57.00
65231;DHT22;51813;40.666;16.602;2023-03-04T07:26:05;16.30;57.00
65231;DHT22;51813;40.666;16.602;2023-03-04T07:28:31;16.20;57.20
65231;DHT22;51813;40.666;16.602;2023-03-04T07:31:06;16.30;57.20
65231;DHT22;51813;40.666;16.602;2023-03-04T07:33:31;16.30;57.00
65231;DHT22;51813;40.666;16.602;2023-03-04T07:35:58;16.30;56.80
65231;DHT22;51813;40.666;16.602;2023-03-04T07:38:24;16.30;56.60
65231;DHT22;51813;40.666;16.602;2023-03-04T07:40:57;16.00;57.20
65231;DHT22;51813;40.666;16.602;2023-03-04T07:43:23;16.10;57.80
65231;DHT22;51813;40.666;16.602;2023-03-04T07:45:48;16.20;57.40
65231;DHT22;51813;40.666;16.602;2023-03-04T07:48:14;16.20;57.30
65231;DHT22;51813;40.666;16.602;2023-03-04T07:50:40;16.20;57.10
65231;DHT22;51813;40.666;16.602;2023-03-04T07:53:05;16.30;57.50
65231;DHT22;51813;40.666;16.602;2023-03-04T07:55:31;16.20;58.10
65231;DHT22;51813;40.666;16.602;2023-03-04T07:57:56;16.10;57.60
65231;DHT22;51813;40.666;16.602;2023-03-04T08:00:22;16.20;58.50
65231;DHT22;51813;40.666;16.602;2023-03-04T08:02:48;16.20;58.20
65231;DHT22;51813;40.666;16.602;2023-03-04T08:05:14;16.30;58.30
65231;DHT22;51813;40.666;16.602;2023-03-04T08:07:39;16.40;58.00
65231;DHT22;51813;40.666;16.602;2023-03-04T08:10:06;16.50;57.60
65231;DHT22;51813;40.666;16.602;2023-03-04T08:12:33;16.50;57.50
65231;DHT22;51813;40.666;16.602;2023-03-04T08:14:59;16.60;57.50
65231;DHT22;51813;40.666;16.602;2023-03-04T08:17:25;16.70;57.40
65231;DHT22;51813;40.666;16.602;2023-03-04T08:19:50;16.70;57.30
65231;DHT22;51813;40.666;16.602;2023-03-04T08:22:16;16.70;57.30
65231;DHT22;51813;40.666;16.602;2023-03-04T08:24:42;16.70;56.60
65231;DHT22;51813;40.666;16.602;2023-03-04T08:27:07;16.70;56.80
65231;DHT22;51813;40.666;16.602;2023-03-04T08:29:33;16.80;56.50
65231;DHT22;51813;40.666;16.602;2023-03-04T08:31:59;16.80;56.40
65231;DHT22;51813;40.666;16.602;2023-03-04T08:34:27;16.80;56.40
65231;DHT22;51813;40.666;16.602;2023-03-04T08:36:53;16.80;56.40
65231;DHT22;51813;40.666;16.602;2023-03-04T08:39:19;16.90;56.30
65231;DHT22;51813;40.666;16.602;2023-03-04T08:41:46;16.90;56.40
65231;DHT22;51813;40.666;16.602;2023-03-04T08:44:12;16.90;56.40
65231;DHT22;51813;40.666;16.602;2023-03-04T08:46:39;16.90;56.40
65231;DHT22;51813;40.666;16.602;2023-03-04T08:49:06;16.90;56.30
65231;DHT22;51813;40.666;16.602;2023-03-04T08:51:32;16.90;56.20
65231;DHT22;51813;40.666;16.602;2023-03-04T08:54:00;16.90;56.20
65231;DHT22;51813;40.666;16.602;2023-03-04T08:56:26;16.90;56.30
65231;DHT22;51813;40.666;16.602;2023-03-04T08:58:52;16.90;56.20
65231;DHT22;51813;40.666;16.602;2023-03-04T09:01:18;16.90;56.80
65231;DHT22;51813;40.666;16.602;2023-03-04T09:03:43;17.00;57.40
65231;DHT22;51813;40.666;16.602;2023-03-04T09:06:13;17.00;57.10
65231;DHT22;51813;40.666;16.602;2023-03-04T09:08:39;16.90;57.20
65231;DHT22;51813;40.666;16.602;2023-03-04T09:11:05;17.00;57.10
65231;DHT22;51813;40.666;16.602;2023-03-04T09:13:31;17.00;57.20
65231;DHT22;51813;40.666;16.602;2023-03-04T09:15:57;17.10;56.80
65231;DHT22;51813;40.666;16.602;2023-03-04T09:18:24;17.10;57.00
65231;DHT22;51813;40.666;16.602;2023-03-04T09:20:50;17.10;57.10
65231;DHT22;51813;40.666;16.602;2023-03-04T09:23:17;17.10;57.20
65231;DHT22;51813;40.666;16.602;2023-03-04T09:25:43;17.20;56.80
65231;DHT22;51813;40.666;16.602;2023-03-04T09:28:12;17.20;57.50
65231;DHT22;51813;40.666;16.602;2023-03-04T09:30:38;17.20;56.60
65231;DHT22;51813;40.666;16.602;2023-03-04T09:33:04;17.20;56.50
65231;DHT22;51813;40.666;16.602;2023-03-04T09:35:29;17.30;56.50
65231;DHT22;51813;40.666;16.602;2023-03-04T09:37:56;17.30;56.40
65231;DHT22;51813;40.666;16.602;2023-03-04T09:40:25;17.30;56.10
65231;DHT22;51813;40.666;16.602;2023-03-04T09:42:59;17.30;56.70
65231;DHT22;51813;40.666;16.602;2023-03-04T09:45:38;17.20;56.00
65231;DHT22;51813;40.666;16.602;2023-03-04T09:48:06;17.10;55.80
65231;DHT22;51813;40.666;16.602;2023-03-04T09:50:37;17.00;54.30
65231;DHT22;51813;40.666;16.602;2023-03-04T09:55:40;16.90;53.50
65231;DHT22;51813;40.666;16.602;2023-03-04T10:03:40;16.80;53.80
65231;DHT22;51813;40.666;16.602;2023-03-04T10:06:18;16.80;54.10
65231;DHT22;51813;40.666;16.602;2023-03-04T10:11:31;16.80;54.40
65231;DHT22;51813;40.666;16.602;2023-03-04T10:17:06;16.80;54.00
65231;DHT22;51813;40.666;16.602;2023-03-04T10:22:22;16.80;52.50
65231;DHT22;51813;40.666;16.602;2023-03-04T10:24:55;16.80;52.90
65231;DHT22;51813;40.666;16.602;2023-03-04T10:27:22;16.80;53.10
65231;DHT22;51813;40.666;16.602;2023-03-04T10:29:49;16.70;53.40
65231;DHT22;51813;40.666;16.602;2023-03-04T10:32:17;16.70;54.10
65231;DHT22;51813;40.666;16.602;2023-03-04T10:34:43;16.70;52.80
65231;DHT22;51813;40.666;16.602;2023-03-04T10:37:10;16.70;51.80
65231;DHT22;51813;40.666;16.602;2023-03-04T10:39:43;16.70;52.10
65231;DHT22;51813;40.666;16.602;2023-03-04T10:44:52;16.60;53.40
65231;DHT22;51813;40.666;16.602;2023-03-04T10:47:22;16.60;51.60
65231;DHT22;51813;40.666;16.602;2023-03-04T10:49:53;16.60;51.80
65231;DHT22;51813;40.666;16.602;2023-03-04T10:52:34;16.60;52.00
65231;DHT22;51813;40.666;16.602;2023-03-04T10:55:19;16.70;52.00
65231;DHT22;51813;40.666;16.602;2023-03-04T10:57:49;16.70;53.10
65231;DHT22;51813;40.666;16.602;2023-03-04T11:02:42;16.60;52.60
65231;DHT22;51813;40.666;16.602;2023-03-04T11:08:00;16.60;52.00
65231;DHT22;51813;40.666;16.602;2023-03-04T11:13:12;16.60;51.80
65231;DHT22;51813;40.666;16.602;2023-03-04T11:16:22;16.60;51.80
65231;DHT22;51813;40.666;16.602;2023-03-04T11:18:53;16.50;51.50
65231;DHT22;51813;40.666;16.602;2023-03-04T11:21:24;16.50;51.00
65231;DHT22;51813;40.666;16.602;2023-03-04T11:24:02;16.50;50.90
65231;DHT22;51813;40.666;16.602;2023-03-04T11:26:42;16.50;51.40
65231;DHT22;51813;40.666;16.602;2023-03-04T11:32:17;16.50;50.70
65231;DHT22;51813;40.666;16.602;2023-03-04T11:37:34;16.50;50.90
65231;DHT22;51813;40.666;16.602;2023-03-04T11:40:27;16.50;50.60
65231;DHT22;51813;40.666;16.602;2023-03-04T11:43:02;16.50;50.10
65231;DHT22;51813;40.666;16.602;2023-03-04T11:50:56;16.50;50.40
65231;DHT22;51813;40.666;16.602;2023-03-04T11:56:00;16.50;51.70
65231;DHT22;51813;40.666;16.602;2023-03-04T11:58:37;16.50;52.10
65231;DHT22;51813;40.666;16.602;2023-03-04T12:01:17;16.60;52.70
65231;DHT22;51813;40.666;16.602;2023-03-04T12:04:09;16.60;52.60
65231;DHT22;51813;40.666;16.602;2023-03-04T12:10:09;16.70;52.70
65231;DHT22;51813;40.666;16.602;2023-03-04T12:18:28;16.70;53.10
65231;DHT22;51813;40.666;16.602;2023-03-04T12:26:47;16.80;53.70
65231;DHT22;51813;40.666;16.602;2023-03-04T12:40:11;16.80;54.10
65231;DHT22;51813;40.666;16.602;2023-03-04T12:42:49;16.80;54.20
65231;DHT22;51813;40.666;16.602;2023-03-04T12:50:59;16.80;54.30
65231;DHT22;51813;40.666;16.602;2023-03-04T12:54:18;16.80;55.20
65231;DHT22;51813;40.666;16.602;2023-03-04T12:56:37;16.80;54.30
65231;DHT22;51813;40.666;16.602;2023-03-04T12:59:05;16.80;54.50
65231;DHT22;51813;40.666;16.602;2023-03-04T13:01:40;16.80;54.60
65231;DHT22;51813;40.666;16.602;2023-03-04T13:04:14;16.80;54.60
65231;DHT22;51813;40.666;16.602;2023-03-04T13:06:53;16.80;54.60
65231;DHT22;51813;40.666;16.602;2023-03-04T13:10:17;16.70;54.50
65231;DHT22;51813;40.666;16.602;2023-03-04T13:12:18;16.60;54.90
65231;DHT22;51813;40.666;16.602;2023-03-04T13:22:52;16.60;54.40
65231;DHT22;51813;40.666;16.602;2023-03-04T13:25:36;16.60;54.40
65231;DHT22;51813;40.666;16.602;2023-03-04T13:35:47;16.60;54.80
65231;DHT22;51813;40.666;16.602;2023-03-04T13:51:38;16.50;54.90
65231;DHT22;51813;40.666;16.602;2023-03-04T13:54:24;16.50;55.50
65231;DHT22;51813;40.666;16.602;2023-03-04T13:59:31;16.60;55.20
65231;DHT22;51813;40.666;16.602;2023-03-04T14:02:07;16.60;55.20
65231;DHT22;51813;40.666;16.602;2023-03-04T14:04:37;16.50;55.00
65231;DHT22;51813;40.666;16.602;2023-03-04T14:07:27;16.50;55.50
65231;DHT22;51813;40.666;16.602;2023-03-04T14:12:26;16.60;55.70
65231;DHT22;51813;40.666;16.602;2023-03-04T14:14:56;16.60;55.60
65231;DHT22;51813;40.666;16.602;2023-03-04T14:17:34;16.70;55.40
65231;DHT22;51813;40.666;16.602;2023-03-04T14:20:06;16.70;55.30
65231;DHT22;51813;40.666;16.602;2023-03-04T14:22:45;16.70;55.30
65231;DHT22;51813;40.666;16.602;2023-03-04T14:27:42;16.70;55.40
65231;DHT22;51813;40.666;16.602;2023-03-04T14:30:20;16.70;55.60
65231;DHT22;51813;40.666;16.602;2023-03-04T14:32:47;16.70;55.40
65231;DHT22;51813;40.666;16.602;2023-03-04T14:35:31;16.70;54.90
65231;DHT22;51813;40.666;16.602;2023-03-04T14:38:30;16.70;55.00
65231;DHT22;51813;40.666;16.602;2023-03-04T14:43:22;16.70;55.90
65231;DHT22;51813;40.666;16.602;2023-03-04T14:45:54;16.80;55.30
65231;DHT22;51813;40.666;16.602;2023-03-04T14:48:26;16.90;55.10
65231;DHT22;51813;40.666;16.602;2023-03-04T14:50:53;17.00;54.40
65231;DHT22;51813;40.666;16.602;2023-03-04T14:53:22;17.20;53.70
65231;DHT22;51813;40.666;16.602;2023-03-04T14:56:08;17.20;53.20
65231;DHT22;51813;40.666;16.602;2023-03-04T14:58:37;17.20;53.40
65231;DHT22;51813;40.666;16.602;2023-03-04T15:01:07;17.30;52.60
65231;DHT22;51813;40.666;16.602;2023-03-04T15:03:37;17.50;53.50
65231;DHT22;51813;40.666;16.602;2023-03-04T15:06:17;17.70;52.30
65231;DHT22;51813;40.666;16.602;2023-03-04T15:08:44;17.60;52.40
65231;DHT22;51813;40.666;16.602;2023-03-04T15:11:20;17.60;52.10
65231;DHT22;51813;40.666;16.602;2023-03-04T15:13:49;17.80;52.40
65231;DHT22;51813;40.666;16.602;2023-03-04T15:16:17;18.00;52.00
65231;DHT22;51813;40.666;16.602;2023-03-04T15:19:28;18.10;51.50
65231;DHT22;51813;40.666;16.602;2023-03-04T15:22:04;18.00;51.80
65231;DHT22;51813;40.666;16.602;2023-03-04T15:24:30;18.20;51.60
65231;DHT22;51813;40.666;16.602;2023-03-04T15:26:56;18.40;51.40
65231;DHT22;51813;40.666;16.602;2023-03-04T15:29:21;18.60;51.00
65231;DHT22;51813;40.666;16.602;2023-03-04T15:31:47;18.70;50.70
65231;DHT22;51813;40.666;16.602;2023-03-04T15:34:15;18.80;50.40
65231;DHT22;51813;40.666;16.602;2023-03-04T15:36:44;18.90;50.30
65231;DHT22;51813;40.666;16.602;2023-03-04T15:39:12;18.90;50.40
65231;DHT22;51813;40.666;16.602;2023-03-04T15:41:39;19.00;50.60
65231;DHT22;51813;40.666;16.602;2023-03-04T15:44:05;19.00;50.40
65231;DHT22;51813;40.666;16.602;2023-03-04T15:46:31;19.10;50.30
65231;DHT22;51813;40.666;16.602;2023-03-04T15:48:56;19.00;49.90
65231;DHT22;51813;40.666;16.602;2023-03-04T15:51:22;19.00;49.20
65231;DHT22;51813;40.666;16.602;2023-03-04T15:53:53;18.80;48.60
65231;DHT22;51813;40.666;16.602;2023-03-04T15:59:12;18.80;48.30
65231;DHT22;51813;40.666;16.602;2023-03-04T16:01:38;18.80;48.40
65231;DHT22;51813;40.666;16.602;2023-03-04T16:04:04;18.80;48.60
65231;DHT22;51813;40.666;16.602;2023-03-04T16:06:31;18.80;48.80
65231;DHT22;51813;40.666;16.602;2023-03-04T16:08:58;18.70;49.00
65231;DHT22;51813;40.666;16.602;2023-03-04T16:11:26;18.70;49.10
65231;DHT22;51813;40.666;16.602;2023-03-04T16:13:52;18.70;49.20
65231;DHT22;51813;40.666;16.602;2023-03-04T16:16:18;18.70;49.20
65231;DHT22;51813;40.666;16.602;2023-03-04T16:18:44;18.30;50.00
65231;DHT22;51813;40.666;16.602;2023-03-04T16:21:15;18.20;50.70
65231;DHT22;51813;40.666;16.602;2023-03-04T16:23:44;18.20;51.20
65231;DHT22;51813;40.666;16.602;2023-03-04T16:26:13;18.10;51.10
65231;DHT22;51813;40.666;16.602;2023-03-04T16:28:39;18.20;51.50
65231;DHT22;51813;40.666;16.602;2023-03-04T16:31:05;18.20;51.90
65231;DHT22;51813;40.666;16.602;2023-03-04T16:33:31;18.10;52.20
65231;DHT22;51813;40.666;16.602;2023-03-04T16:35:57;18.00;52.40
65231;DHT22;51813;40.666;16.602;2023-03-04T16:38:25;18.00;52.30
65231;DHT22;51813;40.666;16.602;2023-03-04T16:40:55;18.10;53.30
65231;DHT22;51813;40.666;16.602;2023-03-04T16:43:22;18.00;52.60
65231;DHT22;51813;40.666;16.602;2023-03-04T16:45:48;18.00;53.20
65231;DHT22;51813;40.666;16.602;2023-03-04T16:48:14;18.20;53.60
65231;DHT22;51813;40.666;16.602;2023-03-04T16:50:41;18.20;52.30
65231;DHT22;51813;40.666;16.602;2023-03-04T16:53:31;18.10;52.70
65231;DHT22;51813;40.666;16.602;2023-03-04T16:56:03;18.00;53.20
65231;DHT22;51813;40.666;16.602;2023-03-04T16:58:29;17.90;53.10
65231;DHT22;51813;40.666;16.602;2023-03-04T17:00:54;17.90;53.50
65231;DHT22;51813;40.666;16.602;2023-03-04T17:03:20;17.90;53.00
65231;DHT22;51813;40.666;16.602;2023-03-04T17:05:46;18.10;53.40
65231;DHT22;51813;40.666;16.602;2023-03-04T17:08:12;17.90;53.10
65231;DHT22;51813;40.666;16.602;2023-03-04T17:10:38;17.90;52.90
65231;DHT22;51813;40.666;16.602;2023-03-04T17:13:04;18.00;52.50
65231;DHT22;51813;40.666;16.602;2023-03-04T17:15:30;18.00;53.60
65231;DHT22;51813;40.666;16.602;2023-03-04T17:17:56;18.10;52.90
65231;DHT22;51813;40.666;16.602;2023-03-04T17:20:21;18.20;52.20
65231;DHT22;51813;40.666;16.602;2023-03-04T17:22:47;18.20;52.10
65231;DHT22;51813;40.666;16.602;2023-03-04T17:25:14;18.20;51.90
65231;DHT22;51813;40.666;16.602;2023-03-04T17:27:40;18.20;51.80